Aérodrome :
LOGIN :

S'inscrire | Disclaimer

   EN    FR    IT 

 










Légende :    VFR   VFR Marginal   IFR   IFR Intensif   IFR Très Intensif
Visi : 
Plafond : 
>= 8 km
>= 3000ft
5 à 8 km
1000 à 3000 ft
1500m à 5 km
500 à 1000 ft
800 à 1500m
200 à 500 ft
< 800m
< 200 ft
Symboles :   Orages  Brouillard  Fortes neiges  Fortes précipitations  Vent > 20 kt
SIGMETs :   Divers  Orages  Givrage  Turbulence  Onde Orograph.  Cendres Volcan.






- Altitude de l'aérodrome : 1470 ft
- Code IATA : KLU


LOWK - Klagenfurt

DERNIER METAR :
  • 220720Z VRB02KT 9999 FEW002 SCT010 BKN013 06/05 Q1014 R10L/19//95 NOSIG

METARs EXPIRÉS :
  • 220650Z VRB02KT 8000 FEW002 SCT010 BKN013 06/05 Q1014 R10L/19//95 NOSIG
  • 220620Z VRB02KT 7000 FEW002 BKN010 BKN015 06/05 Q1014 R10L/19//95 NOSIG
  • 220550Z VRB02KT 7000 FEW004 BKN010 BKN015 06/05 Q1014 R10L/19//95 TEMPO SCT010 BKN015
  • 220520Z VRB02KT 8000 FEW004 OVC013 06/05 Q1014 R10L/19//95 TEMPO BKN015
  • 220450Z 09002KT 8000 FEW004 OVC013 06/05 Q1014 R10L/19//95 NOSIG

TAF TAF LOWK
Valide du 22 à 06h jusqu'au 23 à 06h UTC


220515Z 2206/2306 VRB02KT 9999 SCT004 BKN012 TX08/2213Z TN06/2218Z
PROB30
TEMPO 2206/2209 4000 BR SCT003 BKN005
BECMG 2210/2212 FEW012 BKN040
BECMG 2219/2221 BKN005
PROB30 2219/2306 4000 BR SCT020 BKN040



MET'MAP, la Météo Aéronautique d'un coup d'oeil ! - Copyright ORBIFLY Décembre 2007 - Disclaimer

ORBIFLY MET'MAP TEAM :

Programmation & Développement : Alexandra Zaïnal
Conception & Développement : Baudouin d'Aumeries
Co-Programmation & Développement : Marc-Olivier Méhu
Soutien technique & logistique : Manuel Goepfert

Contact : metmap@orbifly.com




SOURCES & CREDITS :

   NOAA